Dundas, Virginia
Current Conditions -  °F | °C
As of 2:55 PM on Friday 24 Oct 2014 (Local Time) from KW31 Reporting Station
Clear Clear  
Wind Chill: 68°   Ceiling: Unl
Heat Index: 68°   Visibility: 10mi
Dew Point: 46°   Wind: 0mph
Humidity: 45%   Direction: NA
Pressure: 29.96"   Gusts: NA
Location:  36.92°N, 78.02°W
Report Text: KW31 241855Z AUTO 00000KT 10SM CLR 20/08 A2996 RMK AO1 T02010079
Loading
Personal Weather Stations






























Interactive Weather Map
Tropical Storm Tracking
New forecast layout! Learn more

10-Day Weather Forecast

Advertisements
Track Severe Weather on mobile